Time;durP1;ratioP1;P1;durP2;ratioP2;P2;SDS_P1;SDS_P2;PMS_P1;PMS_P2;Temp;Humidity;BMP_temperature;BMP_pressure;BME280_temperature;BME280_humidity;BME280_pressure;Samples;Min_cycle;Max_cycle;Signal;HPM_P1;HPM_P2
2022/07/04 00:00:18;;;;;;;3.10;1.70;;;;;;;12.49;82.43;101901.34;4840402;29;20059;-88
2022/07/04 00:02:45;;;;;;;5.53;1.50;;;;;;;12.51;83.05;101899.22;4840486;29;20109;-88
2022/07/04 00:05:12;;;;;;;5.10;1.35;;;;;;;12.61;83.22;101900.44;4840844;29;20022;-88
2022/07/04 00:07:38;;;;;;;2.75;1.30;;;;;;;12.66;82.75;101905.91;4831525;29;20034;-88
2022/07/04 00:10:06;;;;;;;4.45;1.42;;;;;;;12.66;82.49;101903.22;4819016;29;20490;-88
2022/07/04 00:12:32;;;;;;;8.57;1.75;;;;;;;12.57;82.34;101897.44;4821782;29;20026;-88
2022/07/04 00:14:57;;;;;;;4.27;1.50;;;;;;;12.53;82.13;101897.13;4821712;29;20034;-88
2022/07/04 00:17:23;;;;;;;4.20;1.57;;;;;;;12.41;82.12;101891.00;4821398;29;20038;-88
2022/07/04 00:19:48;;;;;;;1.95;1.30;;;;;;;12.41;82.38;101894.50;4822102;29;20037;-88
2022/07/04 00:22:13;;;;;;;3.13;1.80;;;;;;;12.35;82.41;101894.66;4821579;29;20123;-88
2022/07/04 00:24:40;;;;;;;3.97;1.50;;;;;;;12.30;82.77;101890.03;4821875;29;20113;-88
2022/07/04 00:27:05;;;;;;;4.20;1.40;;;;;;;12.27;83.36;101893.19;4819944;29;20038;-87
2022/07/04 00:29:31;;;;;;;3.50;1.73;;;;;;;12.21;83.93;101897.66;4835045;29;20177;-87
2022/07/04 00:31:56;;;;;;;5.57;2.00;;;;;;;12.16;83.93;101899.44;4839758;29;20025;-88
2022/07/04 00:34:22;;;;;;;4.22;1.67;;;;;;;12.08;84.14;101895.28;4839600;29;20026;-87
2022/07/04 00:36:47;;;;;;;2.27;1.33;;;;;;;12.02;84.17;101888.19;4838772;29;20491;-87
2022/07/04 00:39:12;;;;;;;4.67;1.70;;;;;;;12.01;84.59;101887.38;4840077;29;20026;-87
2022/07/04 00:41:37;;;;;;;2.10;1.73;;;;;;;11.95;83.92;101882.94;4834802;29;20388;-87
2022/07/04 00:44:05;;;;;;;2.03;1.67;;;;;;;11.93;85.34;101893.91;4833296;29;20034;-87
2022/07/04 00:46:30;;;;;;;4.70;1.70;;;;;;;11.85;84.91;101899.69;4839544;29;20290;-89
2022/07/04 00:48:56;;;;;;;4.53;1.73;;;;;;;11.84;85.36;101895.38;4840080;29;20447;-88
2022/07/04 00:51:22;;;;;;;2.27;1.70;;;;;;;11.82;85.40;101887.53;4836801;29;20038;-88
2022/07/04 00:53:48;;;;;;;4.22;1.65;;;;;;;11.82;85.48;101892.91;4828891;29;20113;-88
2022/07/04 00:56:14;;;;;;;3.30;1.90;;;;;;;11.78;84.75;101889.06;4821747;29;20172;-88
2022/07/04 00:58:39;;;;;;;2.67;1.60;;;;;;;11.75;85.48;101886.06;4819690;29;20109;-88
2022/07/04 01:01:04;;;;;;;2.20;1.60;;;;;;;11.68;85.99;101886.19;4831388;29;20033;-88
2022/07/04 01:03:30;;;;;;;3.27;1.80;;;;;;;11.66;86.21;101889.13;4839304;29;20037;-87
2022/07/04 01:05:56;;;;;;;3.90;1.90;;;;;;;11.58;86.72;101889.50;4839810;29;20030;-88
2022/07/04 01:08:21;;;;;;;5.43;1.70;;;;;;;11.52;86.44;101885.06;4839665;29;20058;-88
2022/07/04 01:10:47;;;;;;;2.57;1.77;;;;;;;11.50;87.21;101873.78;4838736;29;20109;-89
2022/07/04 01:13:22;;;;;;;5.13;1.80;;;;;;;11.50;86.80;101884.53;4839937;29;20026;-89
2022/07/04 01:15:50;;;;;;;2.60;1.63;;;;;;;11.44;86.59;101872.84;4837092;29;20034;-87
2022/07/04 01:18:17;;;;;;;4.03;2.10;;;;;;;11.48;87.28;101881.25;4839579;29;20289;-88
2022/07/04 01:20:42;;;;;;;2.58;1.83;;;;;;;11.47;87.38;101867.00;4832989;29;20165;-88
2022/07/04 01:23:07;;;;;;;3.30;2.08;;;;;;;11.52;86.61;101860.91;4839557;29;20108;-88
2022/07/04 01:25:33;;;;;;;4.33;2.10;;;;;;;11.47;87.04;101863.53;4839282;29;20125;-88
2022/07/04 01:28:00;;;;;;;3.37;1.83;;;;;;;11.47;86.90;101866.19;4839233;29;20509;-88
2022/07/04 01:30:25;;;;;;;3.60;1.95;;;;;;;11.37;87.36;101861.44;4838686;29;20046;-88
2022/07/04 01:32:51;;;;;;;3.85;2.03;;;;;;;11.34;87.35;101862.72;4819776;29;20121;-88
2022/07/04 01:35:16;;;;;;;5.67;2.10;;;;;;;11.32;87.46;101864.81;4821115;29;20035;-88
2022/07/04 01:37:41;;;;;;;6.70;2.37;;;;;;;11.24;88.23;101854.47;4820026;29;20046;-88
2022/07/04 01:40:07;;;;;;;3.40;2.13;;;;;;;11.16;88.50;101854.81;4820586;29;20144;-88
2022/07/04 01:42:33;;;;;;;3.75;2.13;;;;;;;11.11;89.20;101844.81;4819202;29;20038;-87
2022/07/04 01:44:58;;;;;;;5.33;2.40;;;;;;;11.15;88.40;101853.19;4820949;29;20039;-88
2022/07/04 01:47:23;;;;;;;4.10;2.20;;;;;;;11.11;88.58;101850.19;4819488;29;20038;-88
2022/07/04 01:49:48;;;;;;;5.55;2.10;;;;;;;11.05;88.60;101841.22;4820322;29;20044;-88
2022/07/04 01:52:15;;;;;;;2.77;2.00;;;;;;;11.07;88.90;101846.31;4820737;29;20559;-88
2022/07/04 01:54:41;;;;;;;4.30;2.37;;;;;;;11.10;88.72;101853.09;4820857;29;20038;-88
2022/07/04 01:57:07;;;;;;;4.13;2.50;;;;;;;11.06;89.34;101850.88;4820810;29;20284;-87
2022/07/04 02:02:16;;;;;;;4.93;2.78;;;;;;;10.99;89.30;101841.34;4820967;29;20411;-88
2022/07/04 02:04:41;;;;;;;4.17;2.50;;;;;;;10.96;89.26;101839.13;4819477;29;20038;-87
2022/07/04 02:07:07;;;;;;;4.53;2.50;;;;;;;10.95;89.52;101840.19;4828353;29;20475;-87
2022/07/04 02:09:32;;;;;;;3.00;2.28;;;;;;;10.90;89.75;101835.53;4842275;29;20030;-88
2022/07/04 02:14:43;;;;;;;9.68;2.55;;;;;;;10.82;89.84;101842.06;4842794;29;20398;-88
2022/07/04 02:17:09;;;;;;;4.07;2.83;;;;;;;10.73;90.07;101833.56;4824750;29;20023;-88
2022/07/04 02:19:34;;;;;;;5.77;2.20;;;;;;;10.79;90.92;101839.00;4823989;29;20038;-87
2022/07/04 02:21:59;;;;;;;6.47;2.50;;;;;;;10.85;90.02;101843.44;4821127;29;20113;-88
2022/07/04 02:24:24;;;;;;;7.37;2.37;;;;;;;10.80;90.11;101837.97;4823787;29;20045;-88
2022/07/04 02:26:50;;;;;;;3.63;2.65;;;;;;;10.82;90.41;101839.38;4823869;29;20030;-87
2022/07/04 02:29:15;;;;;;;3.80;2.30;;;;;;;10.77;90.22;101836.59;4823055;29;20049;-87
2022/07/04 02:31:41;;;;;;;4.47;2.30;;;;;;;10.74;90.49;101843.25;4822116;29;20046;-87
2022/07/04 02:34:07;;;;;;;6.53;2.50;;;;;;;10.70;90.49;101852.78;4823412;29;20113;-87
2022/07/04 02:36:32;;;;;;;4.13;2.23;;;;;;;10.70;90.55;101851.97;4837232;29;20058;-87
2022/07/04 02:38:57;;;;;;;5.93;2.33;;;;;;;10.61;91.00;101843.44;4822626;29;20066;-87
2022/07/04 02:41:22;;;;;;;4.93;2.70;;;;;;;10.66;91.56;101848.94;4830138;29;20120;-87
2022/07/04 02:43:48;;;;;;;4.97;2.33;;;;;;;10.60;91.11;101852.53;4831432;29;20483;-87
2022/07/04 02:46:13;;;;;;;4.10;2.27;;;;;;;10.57;91.34;101847.66;4823474;29;20037;-87
2022/07/04 02:48:38;;;;;;;4.33;2.60;;;;;;;10.51;91.29;101845.91;4823587;29;20479;-87
2022/07/04 02:51:04;;;;;;;4.70;2.33;;;;;;;10.51;91.30;101859.31;4831144;29;20050;-87
2022/07/04 02:53:29;;;;;;;3.03;2.50;;;;;;;10.48;91.03;101854.41;4839207;29;20451;-87
2022/07/04 02:55:54;;;;;;;5.57;2.27;;;;;;;10.50;91.57;101853.13;4822671;29;20030;-87
2022/07/04 02:58:19;;;;;;;4.23;2.57;;;;;;;10.41;91.91;101844.59;4823295;29;20471;-87
2022/07/04 03:00:45;;;;;;;3.38;2.00;;;;;;;10.44;91.87;101859.41;4822000;29;20038;-87
2022/07/04 03:03:10;;;;;;;4.00;2.27;;;;;;;10.39;91.49;101854.75;4823463;29;20031;-87
2022/07/04 03:05:35;;;;;;;3.73;2.40;;;;;;;10.40;92.08;101856.41;4806730;29;20034;-87
2022/07/04 03:08:01;;;;;;;5.80;2.30;;;;;;;10.39;91.68;101861.97;4823549;29;20026;-87
2022/07/04 03:10:26;;;;;;;4.17;2.43;;;;;;;10.38;92.06;101858.50;4819267;29;20046;-87
2022/07/04 03:12:51;;;;;;;3.97;2.10;;;;;;;10.32;92.19;101848.66;4822454;29;20030;-87
2022/07/04 03:15:17;;;;;;;4.90;2.38;;;;;;;10.35;92.22;101864.28;4822871;29;20033;-89
2022/07/04 03:17:42;;;;;;;4.47;2.60;;;;;;;10.30;92.12;101867.66;4838258;29;20059;-90
2022/07/04 03:20:08;;;;;;;3.43;2.50;;;;;;;10.26;92.54;101869.16;4824191;29;20056;-89
2022/07/04 03:22:33;;;;;;;3.85;2.20;;;;;;;10.32;92.76;101880.00;4822916;29;20034;-91
2022/07/04 03:24:58;;;;;;;3.07;2.70;;;;;;;10.25;92.82;101872.03;4824965;29;20038;-90
2022/07/04 03:27:25;;;;;;;6.57;2.73;;;;;;;10.28;93.33;101869.75;4831005;29;20113;-90
2022/07/04 03:29:51;;;;;;;5.18;2.55;;;;;;;10.26;93.15;101879.03;4840216;29;20037;-90
2022/07/04 03:32:16;;;;;;;3.43;3.00;;;;;;;10.25;93.76;101883.59;4823794;29;20031;-91
2022/07/04 03:34:41;;;;;;;5.93;2.80;;;;;;;10.21;93.00;101873.56;4825675;29;20761;-90
2022/07/04 03:37:06;;;;;;;4.55;3.03;;;;;;;10.19;93.16;101879.13;4833862;29;20057;-88
2022/07/04 03:39:40;;;;;;;5.10;2.70;;;;;;;10.20;93.11;101874.63;4838850;29;20047;-95
2022/07/04 03:42:07;;;;;;;4.10;2.47;;;;;;;10.25;93.11;101885.44;4831494;29;20038;-96
2022/07/04 03:44:32;;;;;;;4.97;2.90;;;;;;;10.24;92.67;101892.66;4858141;29;20357;-94
2022/07/04 03:47:21;;;;;;;6.03;3.30;;;;;;;10.30;93.48;101902.47;4852161;29;20014;-96
2022/07/04 03:49:46;;;;;;;6.97;2.90;;;;;;;10.37;93.88;101904.22;4854004;29;20022;-93
2022/07/04 03:52:12;;;;;;;4.07;3.08;;;;;;;10.38;93.30;101904.03;4842930;29;20038;-96
2022/07/04 03:54:37;;;;;;;4.70;3.20;;;;;;;10.39;93.52;101899.47;4825733;29;20063;-94
2022/07/04 03:57:03;;;;;;;4.20;2.60;;;;;;;10.45;92.95;101912.78;4829379;29;20058;-94
2022/07/04 03:59:28;;;;;;;4.47;2.97;;;;;;;10.43;92.45;101901.47;4826652;29;20042;-95
2022/07/04 04:01:53;;;;;;;4.15;2.65;;;;;;;10.47;92.99;101907.19;4809491;29;20045;-95
2022/07/04 04:07:03;;;;;;;5.05;2.90;;;;;;;10.59;92.88;101920.63;4805854;29;20114;-90
2022/07/04 04:09:28;;;;;;;3.90;3.03;;;;;;;10.63;93.04;101916.41;4810583;29;20517;-92
2022/07/04 04:11:55;;;;;;;5.17;2.90;;;;;;;10.70;92.51;101927.00;4835058;29;20073;-92
2022/07/04 04:14:20;;;;;;;5.03;3.50;;;;;;;10.74;92.14;101922.84;4836521;29;20323;-91
2022/07/04 04:16:45;;;;;;;6.30;3.58;;;;;;;10.75;91.98;101905.69;4824190;29;20463;-91
2022/07/04 04:19:11;;;;;;;6.20;3.70;;;;;;;10.82;94.36;101909.09;4824642;29;20103;-93
2022/07/04 04:21:36;;;;;;;7.60;3.93;;;;;;;10.96;95.21;101915.03;4822829;29;20030;-90
2022/07/04 04:24:02;;;;;;;6.47;3.70;;;;;;;11.08;95.06;101922.25;4818276;29;20110;-90
2022/07/04 04:26:29;;;;;;;7.53;3.60;;;;;;;11.19;94.48;101930.31;4824828;29;20117;-88
2022/07/04 04:28:54;;;;;;;6.93;3.43;;;;;;;11.46;94.04;101937.03;4825125;29;20030;-89
2022/07/04 04:31:19;;;;;;;5.67;3.33;;;;;;;11.66;92.51;101945.50;4825708;29;20310;-88
2022/07/04 04:33:45;;;;;;;6.37;3.70;;;;;;;11.66;93.73;101940.16;4834224;29;20034;-89
2022/07/04 04:36:10;;;;;;;7.40;3.40;;;;;;;11.70;93.71;101951.22;4845268;29;20026;-89
2022/07/04 04:38:35;;;;;;;9.23;3.47;;;;;;;11.75;94.51;101953.19;4827235;29;20053;-89
2022/07/04 04:41:01;;;;;;;7.03;3.53;;;;;;;11.78;94.36;101948.13;4836052;29;20042;-89
2022/07/04 04:43:26;;;;;;;7.22;3.70;;;;;;;11.84;94.11;101951.75;4829339;29;20067;-88
2022/07/04 04:45:52;;;;;;;7.73;3.30;;;;;;;11.91;94.00;101943.56;4847775;29;20034;-88
2022/07/04 04:48:17;;;;;;;5.93;3.07;;;;;;;12.07;93.39;101948.19;4825814;29;20082;-89
2022/07/04 04:50:42;;;;;;;8.75;3.33;;;;;;;12.24;92.97;101950.91;4823885;29;20045;-89
2022/07/04 04:53:08;;;;;;;5.67;2.90;;;;;;;12.63;91.73;101934.09;4825622;29;20033;-88
2022/07/04 04:55:33;;;;;;;7.40;3.27;;;;;;;13.69;88.96;101942.31;4828061;29;20058;-89
2022/07/04 04:57:58;;;;;;;6.67;3.10;;;;;;;14.83;83.78;101937.97;4820333;29;20479;-83
2022/07/04 05:00:29;;;;;;;4.77;2.50;;;;;;;15.99;78.18;101936.38;4818727;29;20043;-84
2022/07/04 05:02:54;;;;;;;16.00;3.20;;;;;;;16.91;73.60;101949.06;4821879;29;20034;-83
2022/07/04 05:05:20;;;;;;;6.87;3.00;;;;;;;17.78;68.41;101933.66;4821270;29;20031;-83
2022/07/04 05:07:48;;;;;;;6.47;2.43;;;;;;;18.42;65.89;101939.19;4821431;29;20055;-85
2022/07/04 05:10:15;;;;;;;6.53;2.60;;;;;;;19.01;63.25;101938.38;4821305;29;20438;-84
2022/07/04 05:12:41;;;;;;;7.00;2.40;;;;;;;19.42;62.66;101928.97;4801421;29;20119;-83
2022/07/04 05:15:13;;;;;;;9.52;2.38;;;;;;;20.10;60.63;101937.84;4821383;29;20484;-81
2022/07/04 05:17:38;;;;;;;7.95;2.47;;;;;;;20.62;59.44;101945.16;4829403;29;20112;-85
2022/07/04 05:20:04;;;;;;;6.03;2.30;;;;;;;21.36;55.33;101940.81;4839050;29;20117;-82
2022/07/04 05:22:29;;;;;;;7.78;2.40;;;;;;;21.26;54.92;101941.81;4822665;29;20534;-86
2022/07/04 05:24:55;;;;;;;9.93;2.50;;;;;;;21.28;54.90;101954.03;4829649;29;20030;-84
2022/07/04 05:27:20;;;;;;;4.57;2.40;;;;;;;21.32;54.65;101946.03;4826148;29;20094;-85
2022/07/04 05:29:45;;;;;;;7.13;2.57;;;;;;;21.39;53.97;101941.00;4830882;29;20479;-86
2022/07/04 05:32:11;;;;;;;6.70;2.33;;;;;;;21.30;53.87;101940.91;4820082;29;20041;-83
2022/07/04 05:34:36;;;;;;;6.75;2.30;;;;;;;21.37;54.40;101939.66;4820544;29;20444;-83
2022/07/04 05:37:03;;;;;;;7.07;2.03;;;;;;;21.51;53.72;101945.94;4821350;29;20066;-85
2022/07/04 05:39:28;;;;;;;7.10;2.28;;;;;;;21.68;52.70;101945.31;4821445;29;20391;-88
2022/07/04 05:41:54;;;;;;;4.20;2.33;;;;;;;21.96;53.49;101944.44;4821727;29;20061;-86
2022/07/04 05:44:19;;;;;;;9.97;2.60;;;;;;;22.12;52.30;101940.22;4824256;29;20031;-86
2022/07/04 05:46:44;;;;;;;6.28;2.10;;;;;;;22.38;51.73;101943.13;4826673;29;20086;-86
2022/07/04 05:49:10;;;;;;;5.40;2.27;;;;;;;22.08;51.23;101950.16;4842988;29;20443;-86
2022/07/04 05:51:35;;;;;;;4.17;2.30;;;;;;;21.81;52.52;101949.13;4841079;29;20124;-86
2022/07/04 05:54:00;;;;;;;7.07;2.43;;;;;;;22.01;53.15;101949.78;4826184;29;20023;-87
2022/07/04 05:56:25;;;;;;;7.00;2.50;;;;;;;22.09;52.54;101946.31;4820297;29;20027;-86
2022/07/04 05:58:52;;;;;;;6.47;2.40;;;;;;;21.82;53.08;101958.94;4823098;29;20039;-84
2022/07/04 06:01:17;;;;;;;7.28;2.20;;;;;;;21.63;53.28;101962.59;4840591;29;20563;-85
2022/07/04 06:03:43;;;;;;;8.57;2.00;;;;;;;21.45;54.27;101960.78;4833281;29;20037;-86
2022/07/04 06:06:08;;;;;;;7.10;2.40;;;;;;;21.48;54.60;101960.16;4826063;29;20076;-86
2022/07/04 06:08:33;;;;;;;9.33;2.30;;;;;;;21.13;56.05;101960.59;4823383;29;20403;-86
2022/07/04 06:11:03;;;;;;;9.03;2.40;;;;;;;20.59;56.92;101960.19;4823614;29;20030;-85
2022/07/04 06:13:28;;;;;;;7.75;2.10;;;;;;;20.40;58.58;101963.75;4808009;29;20035;-85
2022/07/04 06:15:54;;;;;;;5.70;2.10;;;;;;;20.40;58.87;101958.31;4823880;29;20629;-84
2022/07/04 06:18:19;;;;;;;7.90;2.33;;;;;;;20.34;58.74;101955.97;4825248;29;20037;-83
2022/07/04 06:20:45;;;;;;;10.20;2.13;;;;;;;20.21;59.13;101952.09;4824216;29;20038;-80
2022/07/04 06:23:10;;;;;;;7.00;2.30;;;;;;;19.93;59.28;101957.38;4823956;29;20030;-84
2022/07/04 06:25:35;;;;;;;6.83;2.40;;;;;;;19.82;59.97;101957.53;4832004;29;20038;-83
2022/07/04 06:28:01;;;;;;;6.50;2.10;;;;;;;19.75;60.95;101962.50;4822849;29;20030;-84
2022/07/04 06:30:27;;;;;;;10.63;2.43;;;;;;;19.90;61.62;101960.72;4822907;29;20291;-83
2022/07/04 06:32:54;;;;;;;6.63;2.25;;;;;;;19.97;60.76;101969.31;4824599;29;20039;-88
2022/07/04 06:38:08;;;;;;;6.05;2.28;;;;;;;19.54;62.90;101961.16;4805908;29;20045;-86
2022/07/04 06:40:35;;;;;;;8.27;2.35;;;;;;;19.38;62.92;101953.19;4804835;29;20042;-84
2022/07/04 06:43:01;;;;;;;8.47;2.70;;;;;;;19.31;63.80;101958.97;4805653;29;20034;-83
2022/07/04 06:45:26;;;;;;;4.85;2.33;;;;;;;19.21;64.51;101968.06;4822560;29;20026;-85
2022/07/04 06:47:52;;;;;;;10.87;2.33;;;;;;;19.43;64.34;101966.72;4820748;29;20086;-83
2022/07/04 06:50:17;;;;;;;6.47;2.30;;;;;;;19.83;63.27;101953.69;4833987;29;20404;-83
2022/07/04 06:52:43;;;;;;;7.20;2.40;;;;;;;20.18;61.75;101952.69;4812902;29;20037;-84
2022/07/04 06:55:09;;;;;;;10.45;2.22;;;;;;;20.70;61.17;101964.34;4822749;29;20042;-84
2022/07/04 06:57:34;;;;;;;7.03;2.57;;;;;;;20.94;59.30;101968.03;4823166;29;20070;-83
2022/07/04 07:00:00;;;;;;;6.30;2.38;;;;;;;21.05;57.80;101968.66;4822416;29;20030;-82
2022/07/04 07:02:25;;;;;;;8.67;2.40;;;;;;;21.21;58.33;101972.69;4834745;29;20495;-81
2022/07/04 07:04:51;;;;;;;5.82;2.40;;;;;;;21.26;57.65;101963.63;4828153;29;20399;-83
2022/07/04 07:07:16;;;;;;;7.13;2.80;;;;;;;21.06;57.37;101949.28;4835025;29;20050;-83
2022/07/04 07:09:41;;;;;;;5.03;2.50;;;;;;;20.64;58.64;101954.63;4819793;29;20042;-84
2022/07/04 07:12:07;;;;;;;6.37;2.50;;;;;;;20.10;60.30;101954.16;4806452;29;20051;-82
2022/07/04 07:14:32;;;;;;;7.90;2.13;;;;;;;19.97;61.99;101953.00;4806958;29;20084;-83
2022/07/04 07:16:58;;;;;;;4.25;2.15;;;;;;;19.93;62.15;101954.66;4806823;29;20030;-84
2022/07/04 07:19:23;;;;;;;4.90;2.23;;;;;;;20.06;61.80;101953.94;4822793;29;20474;-82
2022/07/04 07:21:48;;;;;;;7.63;2.00;;;;;;;20.08;61.92;101937.31;4820065;29;20046;-81
2022/07/04 07:24:14;;;;;;;7.17;2.63;;;;;;;20.03;61.89;101942.84;4825243;29;20110;-82
2022/07/04 07:26:39;;;;;;;6.67;2.40;;;;;;;20.10;62.91;101941.34;4822419;29;20041;-81
2022/07/04 07:29:05;;;;;;;6.18;2.00;;;;;;;20.45;61.83;101951.19;4823426;29;20098;-81
2022/07/04 07:31:31;;;;;;;7.45;2.10;;;;;;;20.91;59.11;101955.03;4822792;29;20034;-81
2022/07/04 07:33:56;;;;;;;6.27;2.23;;;;;;;20.88;57.90;101953.72;4821858;29;20537;-81
2022/07/04 07:36:21;;;;;;;5.47;2.90;;;;;;;20.77;58.61;101950.34;4822939;29;20035;-82
2022/07/04 07:38:46;;;;;;;7.00;2.10;;;;;;;20.80;58.38;101965.31;4823468;29;20114;-82
2022/07/04 07:41:12;;;;;;;3.57;1.83;;;;;;;20.84;56.28;101966.31;4834939;29;20046;-82
2022/07/04 07:43:37;;;;;;;7.10;1.80;;;;;;;20.78;56.49;101964.78;4821385;29;20106;-82
2022/07/04 07:46:23;;;;;;;;;;;;;;;;;;;;;
2022/07/04 07:48:48;;;;;;;3.72;1.58;;;;;;;20.59;55.91;101946.56;4817571;29;20033;-82
2022/07/04 07:51:17;;;;;;;3.73;1.80;;;;;;;20.65;56.66;101950.81;4834596;29;20038;-81
2022/07/04 07:53:43;;;;;;;2.65;1.40;;;;;;;20.81;55.65;101961.47;4832300;29;20396;-81
2022/07/04 07:56:09;;;;;;;6.67;1.30;;;;;;;20.68;55.75;101955.66;4833877;29;20045;-83
2022/07/04 07:58:34;;;;;;;3.58;1.40;;;;;;;20.78;55.23;101948.47;4826868;29;20077;-83
2022/07/04 08:01:01;;;;;;;5.47;1.63;;;;;;;20.65;55.54;101945.34;4837613;29;20038;-83
2022/07/04 08:06:11;;;;;;;4.75;1.48;;;;;;;20.79;55.54;101934.53;4828709;29;20102;-83
2022/07/04 08:08:37;;;;;;;6.30;1.73;;;;;;;20.93;54.11;101931.81;4822597;29;20475;-82
2022/07/04 08:11:03;;;;;;;2.97;1.30;;;;;;;21.04;53.22;101935.16;4819320;29;20440;-82
2022/07/04 08:13:29;;;;;;;6.18;1.50;;;;;;;21.09;53.24;101940.50;4820083;29;20042;-83
2022/07/04 08:15:55;;;;;;;6.30;1.40;;;;;;;21.13;53.80;101938.00;4837357;29;20090;-84
2022/07/04 08:18:22;;;;;;;7.00;1.30;;;;;;;21.40;52.51;101944.53;4822093;29;20038;-85
2022/07/04 08:20:48;;;;;;;4.40;1.40;;;;;;;21.66;52.71;101942.09;4805624;29;20566;-83
2022/07/04 08:23:13;;;;;;;4.40;1.37;;;;;;;21.69;51.09;101954.31;4821763;29;20120;-84
2022/07/04 08:25:41;;;;;;;2.92;1.30;;;;;;;21.76;51.47;101951.97;4827463;29;20030;-86
2022/07/04 08:28:06;;;;;;;2.97;1.40;;;;;;;21.85;51.36;101947.41;4823538;29;20037;-85
2022/07/04 08:30:32;;;;;;;2.97;1.47;;;;;;;21.81;49.97;101949.13;4838873;29;20286;-84
2022/07/04 08:32:57;;;;;;;4.93;1.40;;;;;;;21.97;52.01;101946.88;4827980;29;20032;-85
2022/07/04 08:35:27;;;;;;;2.80;1.10;;;;;;;22.13;50.60;101951.97;4839582;29;20061;-84
2022/07/04 08:37:55;;;;;;;4.30;1.40;;;;;;;22.19;49.83;101956.97;4822780;29;20807;-83
2022/07/04 08:40:26;;;;;;;2.83;1.20;;;;;;;22.20;49.40;101955.88;4895930;23;20153;-83
2022/07/04 08:42:52;;;;;;;4.05;1.55;;;;;;;22.22;49.66;101941.88;4821448;29;20038;-82
2022/07/04 08:45:27;;;;;;;4.80;1.63;;;;;;;22.27;49.57;101951.91;4821207;29;20585;-81
2022/07/04 08:48:00;;;;;;;3.15;1.42;;;;;;;22.19;49.22;101956.97;4821888;29;20031;-84
2022/07/04 08:50:30;;;;;;;5.05;1.70;;;;;;;22.25;50.18;101954.94;4838550;29;20030;-84
2022/07/04 08:53:00;;;;;;;2.20;1.55;;;;;;;22.35;50.21;101951.13;4821610;29;20137;-83
2022/07/04 09:00:58;;;;;;;5.68;1.50;;;;;;;22.68;48.42;101959.06;4821495;29;20723;-84
2022/07/04 09:03:25;;;;;;;3.40;1.40;;;;;;;22.85;48.82;101966.56;4821577;29;20035;-82
2022/07/04 09:05:50;;;;;;;2.80;1.33;;;;;;;22.92;48.54;101971.56;4821060;29;20086;-85
2022/07/04 09:08:16;;;;;;;5.80;1.48;;;;;;;22.94;48.07;101961.91;4821200;29;20034;-83
2022/07/04 09:10:42;;;;;;;3.53;1.40;;;;;;;22.94;48.69;101967.38;4837891;29;20034;-83
2022/07/04 09:13:09;;;;;;;4.82;1.40;;;;;;;23.18;49.33;101962.69;4839760;29;20138;-83
2022/07/04 09:15:34;;;;;;;8.40;1.70;;;;;;;23.26;48.90;101948.25;4836021;29;20022;-82
2022/07/04 09:18:01;;;;;;;4.73;1.60;;;;;;;23.40;47.63;101959.84;4822334;29;20338;-83
2022/07/04 09:20:27;;;;;;;6.13;1.10;;;;;;;23.59;46.79;101958.75;4820902;29;20113;-83
2022/07/04 09:22:54;;;;;;;3.83;1.20;;;;;;;23.69;46.02;101958.47;4821440;29;20476;-82
2022/07/04 09:25:21;;;;;;;5.50;1.35;;;;;;;23.78;46.12;101952.19;4821329;29;20035;-82
2022/07/04 09:27:48;;;;;;;4.25;1.33;;;;;;;24.03;46.94;101951.41;4825177;29;20059;-82
2022/07/04 09:30:19;;;;;;;2.60;1.37;;;;;;;24.13;46.47;101954.94;4832598;29;20062;-82
2022/07/04 09:32:59;;;;;;;3.60;1.33;;;;;;;24.34;45.88;101949.63;4838981;29;20321;-84
2022/07/04 09:35:30;;;;;;;4.28;1.20;;;;;;;24.74;45.01;101954.03;4826852;29;20525;-84
2022/07/04 09:38:02;;;;;;;3.95;1.50;;;;;;;25.03;44.33;101957.94;4820663;29;20037;-84
2022/07/04 09:41:24;;;;;;;7.22;1.50;;;;;;;25.35;43.26;101961.19;4820589;29;20046;-83
2022/07/04 09:43:36;;;;;;;3.50;1.15;;;;;;;25.65;43.70;101961.16;4821618;29;20505;-83
2022/07/04 09:46:09;;;;;;;2.13;1.15;;;;;;;26.05;42.77;101965.34;4839157;29;20034;-84
2022/07/04 09:49:14;;;;;;;4.45;1.50;;;;;;;26.08;41.47;101959.19;4851613;23;20068;-83
2022/07/04 09:51:55;;;;;;;2.33;1.35;;;;;;;25.53;43.34;101951.72;4868595;29;20026;-83
2022/07/04 09:55:07;;;;;;;8.27;1.58;;;;;;;24.90;44.18;101952.34;4857975;29;20022;-83
2022/07/04 10:00:28;;;;;;;4.63;1.73;;;;;;;24.28;44.42;101935.28;5028429;23;20326;-83
2022/07/04 10:03:34;;;;;;;4.78;1.85;;;;;;;24.39;45.43;101959.59;5009328;24;20042;-83
2022/07/04 10:09:29;;;;;;;5.88;1.42;;;;;;;24.32;45.54;101949.91;4882519;24;20061;-83
2022/07/04 10:12:23;;;;;;;3.08;1.30;;;;;;;24.22;43.26;101933.03;4838502;29;20026;-83
2022/07/04 10:14:49;;;;;;;4.07;1.50;;;;;;;24.38;44.21;101938.81;4836671;29;20038;-83
2022/07/04 10:20:04;;;;;;;3.72;1.58;;;;;;;24.93;43.25;101948.97;5187606;23;20506;-84
2022/07/04 10:22:30;;;;;;;2.88;1.30;;;;;;;25.35;43.93;101944.72;4833433;29;20126;-84
2022/07/04 10:24:58;;;;;;;3.65;1.58;;;;;;;25.36;42.82;101927.91;4819944;29;20117;-83
2022/07/04 10:27:24;;;;;;;3.58;1.80;;;;;;;25.78;43.48;101938.13;4822905;29;20439;-83
2022/07/04 10:29:49;;;;;;;6.83;1.73;;;;;;;25.75;41.36;101944.28;4840840;29;20034;-83
2022/07/04 10:32:18;;;;;;;3.57;1.60;;;;;;;25.81;41.48;101942.94;4837104;29;20042;-83
2022/07/04 10:34:44;;;;;;;4.03;1.60;;;;;;;25.95;42.43;101933.63;4841933;29;20290;-85
2022/07/04 10:37:09;;;;;;;5.90;1.42;;;;;;;26.14;41.27;101936.69;4842007;29;20395;-84
2022/07/04 10:39:34;;;;;;;5.90;1.40;;;;;;;26.15;40.94;101934.78;4840480;29;20034;-83
2022/07/04 10:42:01;;;;;;;6.10;1.60;;;;;;;26.43;40.37;101923.16;4840859;29;20049;-86
2022/07/04 10:44:27;;;;;;;4.38;1.63;;;;;;;26.52;39.25;101923.06;4824202;29;20082;-84
2022/07/04 10:46:56;;;;;;;5.03;1.43;;;;;;;26.31;39.14;101921.19;4841639;29;20038;-84
2022/07/04 10:49:24;;;;;;;5.40;1.77;;;;;;;26.20;39.61;101914.53;4841222;29;20033;-85
2022/07/04 10:51:55;;;;;;;4.10;1.70;;;;;;;25.76;39.31;101920.41;4824647;29;20505;-83
2022/07/04 10:54:32;;;;;;;2.55;1.30;;;;;;;26.18;39.45;101914.06;4839927;29;20038;-82
2022/07/04 10:56:57;;;;;;;5.75;1.80;;;;;;;26.92;37.99;101914.19;4841133;29;20553;-83
2022/07/04 10:59:26;;;;;;;4.47;1.70;;;;;;;27.53;36.91;101908.94;4841745;29;20082;-84
2022/07/04 11:02:13;;;;;;;3.97;1.17;;;;;;;27.89;37.17;101910.78;4841224;29;20034;-84
2022/07/04 11:04:44;;;;;;;2.95;1.63;;;;;;;28.09;37.12;101914.44;4831667;29;20115;-84
2022/07/04 11:07:20;;;;;;;3.28;1.40;;;;;;;28.30;36.43;101913.44;4841756;29;20049;-84
2022/07/04 11:09:47;;;;;;;3.30;1.43;;;;;;;28.63;33.59;101914.25;4841130;29;20026;-84
2022/07/04 11:12:14;;;;;;;6.00;1.60;;;;;;;28.39;34.36;101910.53;4840850;29;20338;-85
2022/07/04 11:14:47;;;;;;;3.80;1.40;;;;;;;28.05;36.05;101908.03;4841439;29;20094;-85
2022/07/04 11:17:13;;;;;;;6.70;1.73;;;;;;;28.14;35.49;101909.88;4839793;29;20033;-85
2022/07/04 11:19:39;;;;;;;3.85;1.70;;;;;;;28.03;35.49;101915.06;4841015;29;20046;-84
2022/07/04 11:22:06;;;;;;;3.13;1.20;;;;;;;27.73;35.89;101912.69;4841442;29;20034;-84
2022/07/04 11:27:09;;;;;;;5.80;2.00;;;;;;;26.90;37.54;101910.97;4881567;23;20061;-84
2022/07/04 11:29:35;;;;;;;7.13;2.10;;;;;;;26.58;38.69;101899.72;4854873;29;20030;-84
2022/07/04 11:32:00;;;;;;;6.77;1.93;;;;;;;26.51;39.88;101894.78;4841151;29;20150;-84
2022/07/04 11:34:31;;;;;;;4.90;1.77;;;;;;;26.68;39.23;101901.22;4840844;29;20037;-84
2022/07/04 11:36:58;;;;;;;5.00;1.73;;;;;;;27.09;38.40;101895.84;4843908;29;20025;-84
2022/07/04 11:39:23;;;;;;;4.97;1.70;;;;;;;26.95;37.89;101893.44;4858094;29;20289;-84
2022/07/04 11:45:02;;;;;;;7.50;1.60;;;;;;;27.24;37.30;101894.31;4859447;29;20689;-84
2022/07/04 11:47:39;;;;;;;4.38;1.65;;;;;;;27.57;37.51;101894.13;4841849;29;20038;-83
2022/07/04 11:50:11;;;;;;;3.42;1.85;;;;;;;27.76;37.19;101887.19;4840836;29;20485;-84
2022/07/04 11:52:53;;;;;;;5.93;1.65;;;;;;;28.21;38.19;101897.09;4824229;29;20398;-84
2022/07/04 11:55:19;;;;;;;7.93;3.43;;;;;;;28.89;35.77;101896.38;4856487;29;20037;-85
2022/07/04 11:57:51;;;;;;;9.77;4.13;;;;;;;29.48;36.80;101893.72;4859309;29;20373;-84
2022/07/04 12:00:19;;;;;;;8.48;3.95;;;;;;;29.14;36.83;101886.72;4857968;29;20033;-84